Time;durP1;ratioP1;P1;durP2;ratioP2;P2;SDS_P1;SDS_P2;PMS_P1;PMS_P2;Temp;Humidity;BMP_temperature;BMP_pressure;BME280_temperature;BME280_humidity;BME280_pressure;Samples;Min_cycle;Max_cycle;Signal;HPM_P1;HPM_P2
2023/08/10 00:01:54;;;;;;;3.20;0.87;;;12.40;99.90;12.30;100919.00;;;;4989619;27;106541;-64
2023/08/10 00:04:20;;;;;;;0.83;0.83;;;12.40;99.90;12.20;100915.00;;;;4989988;27;110169;-63
2023/08/10 00:06:45;;;;;;;0.80;0.80;;;12.30;99.90;12.20;100923.00;;;;4984179;27;116737;-64
2023/08/10 00:09:13;;;;;;;2.10;0.83;;;12.20;99.90;12.10;100916.00;;;;4988911;27;98288;-64
2023/08/10 00:11:39;;;;;;;0.90;0.73;;;12.20;99.90;12.10;100917.00;;;;4989909;27;88132;-65
2023/08/10 00:14:05;;;;;;;1.10;0.90;;;12.10;99.90;12.00;100914.00;;;;4989511;27;95022;-64
2023/08/10 00:16:32;;;;;;;0.80;0.63;;;12.10;99.90;12.00;100925.00;;;;4990502;27;87562;-64
2023/08/10 00:18:58;;;;;;;0.80;0.80;;;12.00;99.90;11.90;100915.00;;;;4988676;27;88099;-65
2023/08/10 00:21:24;;;;;;;2.60;0.97;;;11.90;99.90;11.80;100917.00;;;;4990111;27;88012;-64
2023/08/10 00:23:50;;;;;;;1.57;1.10;;;11.90;99.90;11.80;100912.00;;;;4991289;27;88931;-64
2023/08/10 00:26:16;;;;;;;1.43;1.23;;;11.90;99.90;11.80;100914.00;;;;4990082;27;88772;-66
2023/08/10 00:28:41;;;;;;;0.70;0.60;;;11.80;99.90;11.70;100920.00;;;;4989491;27;117645;-64
2023/08/10 00:31:07;;;;;;;1.03;0.80;;;11.80;99.90;11.70;100911.00;;;;4987759;27;110661;-65
2023/08/10 00:33:34;;;;;;;1.30;0.80;;;11.80;99.90;11.60;100911.00;;;;4982496;27;109163;-65
2023/08/10 00:36:06;;;;;;;10.07;1.13;;;11.70;99.90;11.60;100911.00;;;;4986501;27;88548;-65
2023/08/10 00:38:33;;;;;;;1.20;1.10;;;11.70;99.90;11.50;100909.00;;;;4986921;27;89053;-64
2023/08/10 00:40:59;;;;;;;0.90;0.77;;;11.70;99.90;11.50;100914.00;;;;4989637;27;87208;-64
2023/08/10 00:43:25;;;;;;;0.73;0.70;;;11.50;99.90;11.40;100910.00;;;;4991027;27;88120;-65
2023/08/10 00:45:52;;;;;;;1.53;0.70;;;11.50;99.90;11.40;100913.00;;;;4986725;27;114067;-65
2023/08/10 00:48:17;;;;;;;0.80;0.80;;;11.50;99.90;11.30;100913.00;;;;4987036;27;88838;-65
2023/08/10 00:50:43;;;;;;;1.13;0.80;;;11.40;99.90;11.30;100920.00;;;;4987788;27;111384;-65
2023/08/10 00:53:10;;;;;;;1.60;0.87;;;11.40;99.90;11.30;100922.00;;;;4988027;27;108078;-64
2023/08/10 00:55:35;;;;;;;0.90;0.80;;;11.30;99.90;11.20;100914.00;;;;4986164;27;115294;-65
2023/08/10 00:58:01;;;;;;;0.83;0.80;;;11.30;99.90;11.20;100913.00;;;;4986366;27;116384;-65
2023/08/10 01:00:27;;;;;;;1.17;1.03;;;11.30;99.90;11.20;100919.00;;;;4987381;27;110572;-65
2023/08/10 01:02:53;;;;;;;1.17;0.83;;;11.30;99.90;11.10;100912.00;;;;4989479;27;87801;-65
2023/08/10 01:05:19;;;;;;;1.23;0.90;;;11.20;99.90;11.10;100909.00;;;;4988263;27;88199;-65
2023/08/10 01:07:57;;;;;;;0.80;0.80;;;11.10;99.90;11.00;100913.00;;;;4990045;27;88372;-66
2023/08/10 01:10:39;;;;;;;0.87;0.87;;;11.10;99.90;10.90;100918.00;;;;4988741;27;87940;-64
2023/08/10 01:13:22;;;;;;;1.17;0.93;;;11.00;99.90;10.90;100921.00;;;;4988266;27;89014;-64
2023/08/10 01:15:54;;;;;;;1.00;0.83;;;11.00;99.90;10.80;100924.00;;;;4985643;27;88638;-64
2023/08/10 01:18:25;;;;;;;1.50;1.20;;;10.90;99.90;10.80;100931.00;;;;4990279;27;87890;-64
2023/08/10 01:20:53;;;;;;;2.70;1.20;;;10.90;99.90;10.80;100926.00;;;;4989494;27;103992;-66
2023/08/10 01:23:44;;;;;;;1.53;1.43;;;10.90;99.90;10.70;100930.00;;;;4986924;27;100457;-64
2023/08/10 01:26:10;;;;;;;1.10;1.00;;;10.80;99.90;10.80;100936.00;;;;4983054;27;88141;-64
2023/08/10 01:28:37;;;;;;;1.47;1.10;;;10.80;99.90;10.80;100927.00;;;;4987285;27;116720;-66
2023/08/10 01:31:02;;;;;;;4.33;1.17;;;10.80;99.90;10.70;100928.00;;;;4986777;27;109468;-64
2023/08/10 01:33:30;;;;;;;2.57;1.50;;;10.80;99.90;10.80;100926.00;;;;4985852;27;109080;-65
2023/08/10 01:35:55;;;;;;;1.17;1.17;;;10.80;99.90;10.80;100933.00;;;;4985248;27;89096;-65
2023/08/10 01:38:21;;;;;;;0.37;0.37;;;10.80;99.90;10.80;100924.00;;;;4982975;27;117630;-64
2023/08/10 01:40:51;;;;;;;0.83;0.83;;;10.80;99.90;10.80;100936.00;;;;4983699;27;102220;-65
2023/08/10 01:43:17;;;;;;;2.63;1.03;;;10.80;99.90;10.80;100938.00;;;;4986936;27;87658;-64
2023/08/10 01:45:49;;;;;;;1.23;1.13;;;10.90;99.90;10.90;100931.00;;;;4988550;27;88775;-63
2023/08/10 01:48:27;;;;;;;1.03;0.93;;;10.90;99.90;10.90;100941.00;;;;4990364;27;88062;-64
2023/08/10 01:50:54;;;;;;;1.63;0.90;;;10.90;99.90;10.90;100930.00;;;;4991875;27;88038;-65
2023/08/10 01:53:28;;;;;;;1.20;1.10;;;11.00;99.90;10.90;100942.00;;;;4990375;27;107774;-65
2023/08/10 01:55:55;;;;;;;0.83;0.77;;;11.00;99.90;11.00;100930.00;;;;4987322;27;88006;-65
2023/08/10 01:58:20;;;;;;;1.23;1.13;;;11.00;99.90;11.00;100930.00;;;;4990236;27;101361;-65
2023/08/10 02:00:46;;;;;;;2.13;1.30;;;11.00;99.90;11.00;100933.00;;;;4990824;27;110166;-65
2023/08/10 02:03:12;;;;;;;1.17;1.17;;;11.00;99.90;10.90;100932.00;;;;4989403;27;90124;-65
2023/08/10 02:05:38;;;;;;;0.87;0.87;;;11.00;99.90;10.90;100930.00;;;;4990333;27;106480;-64
2023/08/10 02:08:04;;;;;;;1.07;0.60;;;11.00;99.90;10.90;100938.00;;;;4990695;27;88765;-65
2023/08/10 02:10:29;;;;;;;1.00;1.00;;;11.00;99.90;10.90;100933.00;;;;4990409;27;87762;-65
2023/08/10 02:12:55;;;;;;;0.93;0.80;;;10.90;99.90;10.80;100935.00;;;;4988605;27;108392;-64
2023/08/10 02:15:21;;;;;;;1.40;1.20;;;10.90;99.90;10.80;100926.00;;;;4986049;27;118147;-65
2023/08/10 02:17:46;;;;;;;6.73;1.03;;;10.90;99.90;10.80;100936.00;;;;4989178;27;118009;-64
2023/08/10 02:20:12;;;;;;;1.10;1.00;;;11.30;99.90;10.80;100941.00;;;;4987521;27;110078;-64
2023/08/10 02:22:56;;;;;;;2.73;0.90;;;10.80;99.90;10.70;100934.00;;;;4995788;27;87678;-65
2023/08/10 02:25:22;;;;;;;1.27;1.13;;;10.80;99.90;10.70;100945.00;;;;4987453;27;101728;-65
2023/08/10 02:27:50;;;;;;;1.33;1.23;;;10.80;99.90;10.70;100937.00;;;;4988615;27;88832;-65
2023/08/10 02:30:16;;;;;;;2.10;1.23;;;10.80;99.90;10.70;100940.00;;;;4991112;27;87832;-65
2023/08/10 02:32:42;;;;;;;1.57;0.97;;;10.70;99.90;10.60;100942.00;;;;4992085;27;94860;-65
2023/08/10 02:35:09;;;;;;;1.70;0.90;;;10.70;99.90;10.60;100945.00;;;;4992146;27;88624;-65
2023/08/10 02:37:35;;;;;;;1.30;0.93;;;10.70;99.90;10.60;100936.00;;;;4992216;27;88423;-65
2023/08/10 02:40:07;;;;;;;0.80;0.80;;;10.60;99.90;10.50;100939.00;;;;4990314;27;87709;-65
2023/08/10 02:42:32;;;;;;;1.20;1.07;;;10.60;99.90;10.50;100936.00;;;;4988103;28;89200;-65
2023/08/10 02:44:58;;;;;;;0.70;0.70;;;10.50;99.90;10.40;100934.00;;;;4985724;27;105584;-64
2023/08/10 02:47:24;;;;;;;4.03;1.03;;;10.50;99.90;10.40;100940.00;;;;4989492;27;105494;-65
2023/08/10 02:49:50;;;;;;;1.33;1.07;;;10.50;99.90;10.30;100928.00;;;;4986231;27;101351;-65
2023/08/10 02:52:15;;;;;;;0.73;0.73;;;10.40;99.90;10.30;100929.00;;;;4987634;27;109110;-65
2023/08/10 02:54:41;;;;;;;1.23;0.87;;;10.40;99.90;10.20;100926.00;;;;4988257;27;95917;-65
2023/08/10 02:57:07;;;;;;;1.20;1.03;;;10.30;99.90;10.20;100924.00;;;;4988845;27;116861;-65
2023/08/10 02:59:33;;;;;;;0.97;0.97;;;10.30;99.90;10.10;100922.00;;;;4987388;27;110644;-65
2023/08/10 03:02:00;;;;;;;0.93;0.80;;;10.20;99.90;10.00;100921.00;;;;4987728;27;88528;-64
2023/08/10 03:04:25;;;;;;;1.83;1.17;;;10.10;99.90;10.00;100921.00;;;;4988119;27;91253;-64
2023/08/10 03:06:51;;;;;;;2.17;0.67;;;10.10;99.90;9.90;100917.00;;;;4989057;27;117326;-65
2023/08/10 03:09:17;;;;;;;1.00;0.90;;;10.00;99.90;9.90;100921.00;;;;4989156;27;87208;-64
2023/08/10 03:11:42;;;;;;;1.63;1.10;;;10.00;99.90;9.80;100928.00;;;;4988649;27;108174;-64
2023/08/10 03:14:08;;;;;;;1.27;0.90;;;9.90;99.90;9.80;100945.00;;;;4986443;27;116069;-64
2023/08/10 03:16:34;;;;;;;1.83;0.63;;;9.90;99.90;9.80;100946.00;;;;4987703;27;114771;-64
2023/08/10 03:19:00;;;;;;;1.20;0.93;;;9.80;99.90;9.70;100938.00;;;;4989911;27;87887;-64
2023/08/10 03:21:26;;;;;;;0.80;0.80;;;9.80;99.90;9.70;100945.00;;;;4990557;27;87949;-65
2023/08/10 03:23:52;;;;;;;2.23;1.10;;;9.80;99.90;9.70;100950.00;;;;4990512;27;119048;-64
2023/08/10 03:26:18;;;;;;;1.80;1.27;;;9.80;99.90;9.60;100938.00;;;;4989647;27;100990;-64
2023/08/10 03:28:43;;;;;;;1.20;1.10;;;9.70;99.90;9.60;100954.00;;;;4990651;27;109247;-64
2023/08/10 03:31:12;;;;;;;0.90;0.90;;;9.70;99.90;9.60;100948.00;;;;4990045;27;108167;-64
2023/08/10 03:33:39;;;;;;;1.27;0.90;;;9.70;99.90;9.50;100946.00;;;;4991337;27;96412;-65
2023/08/10 03:36:05;;;;;;;1.13;0.80;;;9.70;99.90;9.50;100953.00;;;;4989397;27;110564;-64
2023/08/10 03:38:31;;;;;;;5.63;1.47;;;9.60;99.90;9.50;100956.00;;;;4997114;27;87979;-64
2023/08/10 03:40:56;;;;;;;1.33;1.20;;;9.60;99.90;9.40;100960.00;;;;4988818;27;108352;-65
2023/08/10 03:43:22;;;;;;;2.63;0.90;;;9.50;99.90;9.40;100965.00;;;;4990773;27;116671;-65
2023/08/10 03:45:48;;;;;;;1.10;0.90;;;9.50;99.90;9.40;100958.00;;;;4991147;27;118102;-65
2023/08/10 03:48:14;;;;;;;2.00;1.80;;;9.50;99.90;9.30;100960.00;;;;4988661;27;87999;-66
2023/08/10 03:50:39;;;;;;;1.10;0.87;;;9.50;99.90;9.30;100961.00;;;;4989458;27;88048;-66
2023/08/10 03:53:06;;;;;;;0.97;0.93;;;9.40;99.90;9.30;100964.00;;;;4989443;28;118454;-64
2023/08/10 03:55:32;;;;;;;0.97;0.87;;;9.40;99.90;9.30;100974.00;;;;4996592;27;87795;-64
2023/08/10 03:58:01;;;;;;;0.70;0.70;;;9.60;99.90;9.30;100963.00;;;;4990009;28;87176;-64
2023/08/10 04:00:26;;;;;;;1.80;1.27;;;9.40;99.90;9.30;100969.00;;;;4986079;28;107650;-65
2023/08/10 04:02:53;;;;;;;2.30;1.67;;;9.40;99.90;9.30;100977.00;;;;4987207;27;98961;-66
2023/08/10 04:05:19;;;;;;;1.40;1.23;;;9.40;99.90;9.30;100976.00;;;;4990527;28;88776;-65
2023/08/10 04:07:45;;;;;;;1.67;1.50;;;9.40;99.90;9.30;100975.00;;;;4988930;27;87840;-65
2023/08/10 04:10:11;;;;;;;1.10;0.70;;;9.40;99.90;9.30;100978.00;;;;4990166;28;108624;-65
2023/08/10 04:12:38;;;;;;;1.40;1.30;;;9.40;99.90;9.30;100964.00;;;;4983233;27;88082;-64
2023/08/10 04:15:08;;;;;;;1.57;1.47;;;9.40;99.90;9.30;100966.00;;;;4985827;28;87848;-64
2023/08/10 04:17:35;;;;;;;1.93;1.23;;;9.40;99.90;9.30;100977.00;;;;4987668;27;87779;-65
2023/08/10 04:20:01;;;;;;;1.30;1.20;;;9.40;99.90;9.30;100971.00;;;;4988802;27;90039;-65
2023/08/10 04:22:26;;;;;;;1.10;1.00;;;9.40;99.90;9.30;100968.00;;;;4989371;27;93326;-65
2023/08/10 04:24:52;;;;;;;7.37;1.17;;;9.40;99.90;9.30;100973.00;;;;4987527;27;117718;-64
2023/08/10 04:27:18;;;;;;;1.40;1.30;;;9.40;99.90;9.40;100970.00;;;;4984063;28;110317;-65
2023/08/10 04:29:44;;;;;;;1.57;0.97;;;9.40;99.90;9.40;100974.00;;;;4991057;27;108116;-64
2023/08/10 04:32:11;;;;;;;2.73;1.33;;;9.40;99.90;9.40;100976.00;;;;4987345;27;117549;-67
2023/08/10 04:34:37;;;;;;;1.50;1.40;;;9.50;99.90;9.50;100975.00;;;;4988351;27;102879;-64
2023/08/10 04:37:03;;;;;;;1.57;1.47;;;9.50;99.90;9.50;100976.00;;;;4989361;27;109394;-63
2023/08/10 04:39:29;;;;;;;2.73;1.30;;;9.60;99.90;9.60;100974.00;;;;4987937;27;98553;-65
2023/08/10 04:41:54;;;;;;;2.50;1.50;;;9.70;99.90;9.70;100986.00;;;;4988076;27;88062;-64
2023/08/10 04:44:20;;;;;;;1.50;1.40;;;9.80;99.90;9.80;100985.00;;;;4993359;27;117803;-65
2023/08/10 04:46:46;;;;;;;2.00;1.70;;;10.00;99.90;10.00;100988.00;;;;4989283;27;87222;-65
2023/08/10 04:49:12;;;;;;;1.77;1.20;;;10.00;99.90;10.20;100984.00;;;;4986455;27;89962;-65
2023/08/10 04:51:37;;;;;;;1.57;1.47;;;10.20;99.90;10.40;100992.00;;;;4985660;27;118622;-64
2023/08/10 04:54:03;;;;;;;1.73;1.37;;;10.30;99.90;10.60;100990.00;;;;4986769;27;116903;-64
2023/08/10 04:56:29;;;;;;;1.93;1.43;;;10.50;99.90;10.80;101002.00;;;;4989273;27;101328;-64
2023/08/10 04:58:54;;;;;;;2.23;1.43;;;10.80;99.90;11.10;101006.00;;;;4986690;27;107115;-65
2023/08/10 05:01:20;;;;;;;1.83;1.70;;;11.00;99.90;11.30;100997.00;;;;4992409;27;116480;-64
2023/08/10 05:03:46;;;;;;;4.27;1.47;;;11.30;99.90;11.50;100998.00;;;;4993458;27;118379;-64
2023/08/10 05:06:12;;;;;;;1.90;1.73;;;11.50;99.90;11.70;100995.00;;;;4985311;27;110508;-64
2023/08/10 05:08:38;;;;;;;1.17;1.07;;;11.70;99.90;11.80;100993.00;;;;4986665;27;108750;-64
2023/08/10 05:11:04;;;;;;;1.53;1.43;;;11.80;99.90;12.00;100997.00;;;;4982942;27;87944;-64
2023/08/10 05:13:30;;;;;;;1.63;1.53;;;11.90;99.90;12.00;101001.00;;;;4985101;27;117420;-64
2023/08/10 05:15:55;;;;;;;1.77;1.67;;;12.00;99.90;12.10;101006.00;;;;4981731;27;109790;-65
2023/08/10 05:18:23;;;;;;;1.40;1.30;;;12.10;99.90;12.20;101003.00;;;;4981104;27;109216;-65
2023/08/10 05:20:49;;;;;;;1.87;1.70;;;12.20;99.90;12.30;101012.00;;;;4984961;27;88080;-65
2023/08/10 05:23:15;;;;;;;1.30;1.00;;;12.30;99.90;12.50;101016.00;;;;4980646;27;113460;-64
2023/08/10 05:25:41;;;;;;;1.77;1.67;;;12.50;99.90;12.70;101021.00;;;;4981739;28;97499;-62
2023/08/10 05:28:07;;;;;;;1.27;1.17;;;12.60;99.90;12.90;101008.00;;;;4983943;28;88029;-64
2023/08/10 05:30:33;;;;;;;3.10;1.37;;;12.80;99.90;13.10;101006.00;;;;4988132;28;88075;-64
2023/08/10 05:32:59;;;;;;;9.17;1.27;;;13.00;99.90;13.30;101008.00;;;;4985896;28;89154;-64
2023/08/10 05:35:25;;;;;;;1.53;1.43;;;13.20;99.90;13.50;101018.00;;;;4984489;27;110538;-64
2023/08/10 05:37:51;;;;;;;2.10;1.60;;;13.40;99.90;13.80;101012.00;;;;4981616;27;87971;-63
2023/08/10 05:40:17;;;;;;;20.23;1.67;;;13.60;99.90;14.00;101013.00;;;;4984730;27;118997;-65
2023/08/10 05:42:43;;;;;;;12.23;1.67;;;13.90;99.90;14.30;101025.00;;;;4983237;27;89043;-65
2023/08/10 05:45:14;;;;;;;1.30;1.00;;;14.10;99.90;14.50;101022.00;;;;4985602;27;88033;-65
2023/08/10 05:47:44;;;;;;;1.10;0.83;;;14.40;99.90;14.70;101031.00;;;;4987924;27;89839;-65
2023/08/10 05:50:09;;;;;;;1.13;1.00;;;14.60;99.90;14.90;101031.00;;;;4983029;27;88719;-66
2023/08/10 05:52:35;;;;;;;1.10;1.00;;;14.80;99.90;15.00;101030.00;;;;4983204;27;114923;-66
2023/08/10 05:55:01;;;;;;;2.80;0.80;;;14.90;99.90;15.10;101032.00;;;;4982514;27;111547;-65
2023/08/10 05:57:26;;;;;;;3.33;0.93;;;15.10;99.90;15.30;101035.00;;;;4982660;27;100039;-65
2023/08/10 05:59:53;;;;;;;1.45;0.82;;;15.10;99.90;15.40;101033.00;;;;4988602;28;88074;-65
2023/08/10 06:02:19;;;;;;;1.45;1.00;;;15.30;99.90;15.50;101035.00;;;;4983956;27;87968;-65
2023/08/10 06:04:45;;;;;;;3.42;1.27;;;15.40;99.90;15.70;101035.00;;;;4984517;27;87694;-65
2023/08/10 06:07:12;;;;;;;1.63;1.00;;;15.50;99.90;15.80;101037.00;;;;4982849;27;88633;-64
2023/08/10 06:09:37;;;;;;;0.88;0.73;;;15.70;99.90;16.00;101043.00;;;;4986073;27;88417;-64
2023/08/10 06:12:04;;;;;;;1.25;0.65;;;15.90;99.90;16.20;101052.00;;;;4983362;28;93821;-63
2023/08/10 06:14:30;;;;;;;1.13;0.98;;;16.00;99.90;16.30;101051.00;;;;4983460;27;87867;-63
2023/08/10 06:16:55;;;;;;;0.70;0.70;;;16.20;99.90;16.50;101049.00;;;;4983522;27;87794;-64
2023/08/10 06:19:21;;;;;;;0.43;0.43;;;16.40;99.90;16.70;101050.00;;;;4981446;27;117735;-64
2023/08/10 06:21:47;;;;;;;0.40;0.40;;;16.50;99.90;16.80;101052.00;;;;4983694;27;117051;-65
2023/08/10 06:24:13;;;;;;;9.75;1.08;;;16.70;99.90;16.90;101047.00;;;;4986210;27;87170;-63
2023/08/10 06:26:38;;;;;;;0.60;0.60;;;16.80;99.90;17.00;101047.00;;;;4978588;27;111430;-65
2023/08/10 06:29:04;;;;;;;1.48;0.93;;;16.90;99.90;17.10;101042.00;;;;4982983;27;87957;-64
2023/08/10 06:31:31;;;;;;;0.73;0.60;;;17.10;99.90;17.30;101051.00;;;;4980241;27;118646;-65
2023/08/10 06:33:56;;;;;;;2.65;0.68;;;17.20;99.90;17.50;101051.00;;;;4983667;27;87803;-65
2023/08/10 06:36:22;;;;;;;0.85;0.43;;;17.40;99.90;17.70;101053.00;;;;4984641;27;100238;-66
2023/08/10 06:38:49;;;;;;;0.75;0.43;;;17.60;99.90;17.80;101052.00;;;;4984109;27;117816;-63
2023/08/10 06:41:15;;;;;;;0.50;0.50;;;17.80;99.90;18.00;101056.00;;;;4987088;27;88600;-66
2023/08/10 06:43:41;;;;;;;0.30;0.30;;;17.90;99.90;18.10;101059.00;;;;4986874;27;87794;-65
2023/08/10 06:46:07;;;;;;;0.65;0.65;;;18.00;99.90;18.30;101065.00;;;;4985481;27;108406;-65
2023/08/10 06:48:32;;;;;;;1.00;0.75;;;18.20;99.90;18.50;101068.00;;;;4985660;27;115556;-65
2023/08/10 06:50:58;;;;;;;3.08;0.60;;;18.40;99.90;18.60;101073.00;;;;4985950;27;114938;-64
2023/08/10 06:53:23;;;;;;;0.63;0.43;;;18.50;99.70;18.80;101068.00;;;;4986737;27;112850;-65
2023/08/10 06:55:52;;;;;;;0.73;0.50;;;18.70;99.60;19.00;101074.00;;;;4986292;27;105905;-64
2023/08/10 06:58:18;;;;;;;0.30;0.30;;;18.90;98.60;19.00;101071.00;;;;4987882;27;88369;-63
2023/08/10 07:00:44;;;;;;;0.70;0.65;;;19.00;97.40;19.10;101077.00;;;;4986550;27;107099;-64
2023/08/10 07:03:10;;;;;;;1.60;0.60;;;19.00;97.00;19.20;101079.00;;;;4988207;27;88485;-64
2023/08/10 07:05:41;;;;;;;0.60;0.40;;;19.10;96.70;19.10;101076.00;;;;4987642;27;98416;-64
2023/08/10 07:08:10;;;;;;;0.50;0.50;;;19.10;96.00;19.20;101080.00;;;;4986332;27;99263;-65
2023/08/10 07:10:37;;;;;;;0.28;0.28;;;19.10;96.30;19.30;101084.00;;;;4985881;27;87999;-64
2023/08/10 07:13:03;;;;;;;0.80;0.57;;;19.20;96.10;19.40;101080.00;;;;4985695;27;96837;-64
2023/08/10 07:15:32;;;;;;;1.17;0.88;;;19.30;95.20;19.50;101072.00;;;;4986082;27;87862;-65
2023/08/10 07:17:58;;;;;;;2.72;0.63;;;19.40;94.90;19.60;101072.00;;;;4986623;28;88770;-64
2023/08/10 07:20:24;;;;;;;1.52;0.63;;;19.50;95.00;19.80;101083.00;;;;4985718;27;91014;-64
2023/08/10 07:22:50;;;;;;;1.33;0.60;;;19.70;94.60;20.00;101078.00;;;;4987239;27;88689;-63
2023/08/10 07:25:18;;;;;;;0.47;0.47;;;19.80;95.00;20.30;101083.00;;;;4986975;27;109156;-64
2023/08/10 07:27:45;;;;;;;0.20;0.20;;;20.10;94.80;20.60;101083.00;;;;4989977;27;88371;-65
2023/08/10 07:30:13;;;;;;;0.73;0.30;;;20.40;94.40;20.90;101079.00;;;;4986468;27;88040;-66
2023/08/10 07:32:40;;;;;;;0.40;0.40;;;20.70;94.00;21.20;101084.00;;;;4983846;28;88072;-64
2023/08/10 07:35:06;;;;;;;1.02;0.55;;;21.00;93.10;21.40;101094.00;;;;4985100;27;87693;-65
2023/08/10 07:37:34;;;;;;;0.70;0.70;;;21.20;92.60;21.60;101090.00;;;;4989458;27;87725;-62
2023/08/10 07:40:00;;;;;;;0.43;0.40;;;21.40;92.60;22.00;101084.00;;;;4987374;27;87744;-64
2023/08/10 07:42:25;;;;;;;0.40;0.40;;;21.70;92.50;22.30;101084.00;;;;4989636;27;87946;-63
2023/08/10 07:44:51;;;;;;;3.13;0.57;;;22.00;92.10;22.50;101081.00;;;;4986163;27;106492;-64
2023/08/10 07:47:17;;;;;;;0.88;0.55;;;22.30;91.50;22.80;101093.00;;;;4987676;27;118738;-64
2023/08/10 07:49:43;;;;;;;0.90;0.50;;;22.60;90.90;23.00;101095.00;;;;4984138;27;117553;-63
2023/08/10 07:52:09;;;;;;;0.57;0.43;;;22.80;90.10;23.10;101094.00;;;;4986113;27;111863;-64
2023/08/10 07:54:35;;;;;;;0.70;0.38;;;23.00;87.20;23.00;101099.00;;;;4982154;27;91429;-63
2023/08/10 07:57:00;;;;;;;1.13;0.57;;;23.00;84.50;22.90;101101.00;;;;4981653;27;117936;-64
2023/08/10 07:59:26;;;;;;;1.67;0.70;;;22.90;83.80;22.90;101100.00;;;;4982167;27;116654;-64
2023/08/10 08:01:52;;;;;;;1.35;0.63;;;22.90;81.20;22.90;101109.00;;;;4988974;27;92156;-64
2023/08/10 08:04:17;;;;;;;0.90;0.60;;;22.80;81.60;22.90;101109.00;;;;4983334;27;87922;-63
2023/08/10 08:06:43;;;;;;;0.75;0.38;;;22.90;81.90;23.00;101115.00;;;;4984321;27;107073;-64
2023/08/10 08:09:10;;;;;;;0.28;0.25;;;22.90;81.00;23.00;101117.00;;;;4981098;27;116155;-64
2023/08/10 08:11:36;;;;;;;0.60;0.50;;;23.00;79.30;23.00;101101.00;;;;4984613;27;88045;-63
2023/08/10 08:14:02;;;;;;;0.40;0.40;;;23.00;78.00;23.00;101106.00;;;;4985043;27;107878;-63
2023/08/10 08:16:28;;;;;;;0.65;0.55;;;23.00;78.30;23.10;101113.00;;;;4984998;27;88526;-63
2023/08/10 08:18:55;;;;;;;1.23;1.10;;;23.00;77.80;23.20;101099.00;;;;4984355;27;99092;-64
2023/08/10 08:21:23;;;;;;;0.73;0.68;;;23.00;76.70;23.30;101110.00;;;;4983822;27;88131;-65
2023/08/10 08:23:51;;;;;;;0.52;0.45;;;23.20;77.10;23.50;101108.00;;;;4984640;27;87957;-64
2023/08/10 08:26:19;;;;;;;1.58;1.00;;;23.40;76.40;23.60;101110.00;;;;4983952;27;87801;-65
2023/08/10 08:28:45;;;;;;;1.00;0.50;;;23.40;75.70;23.70;101103.00;;;;4980960;27;103837;-65
2023/08/10 08:31:12;;;;;;;1.27;0.50;;;23.60;76.30;23.80;101103.00;;;;4985183;27;88099;-64
2023/08/10 08:33:39;;;;;;;1.23;0.82;;;23.70;75.10;23.80;101105.00;;;;4984371;27;88883;-64
2023/08/10 08:36:05;;;;;;;0.90;0.70;;;23.80;72.90;23.90;101102.00;;;;4982585;27;88954;-64
2023/08/10 08:38:32;;;;;;;0.82;0.47;;;23.80;73.90;24.00;101101.00;;;;4984892;27;96791;-64
2023/08/10 08:41:05;;;;;;;2.25;0.60;;;23.80;74.10;24.10;101104.00;;;;4985436;27;87839;-64
2023/08/10 08:43:32;;;;;;;1.55;0.55;;;24.00;73.60;24.10;101094.00;;;;4986195;27;88044;-64
2023/08/10 08:45:59;;;;;;;0.25;0.25;;;24.00;73.00;24.10;101092.00;;;;4985282;27;105085;-63
2023/08/10 08:48:29;;;;;;;1.23;0.60;;;24.10;70.50;24.10;101103.00;;;;4985583;27;89510;-63
2023/08/10 08:50:56;;;;;;;4.95;1.15;;;24.00;70.50;24.10;101100.00;;;;4984118;27;87520;-63
2023/08/10 08:53:23;;;;;;;1.83;1.25;;;24.10;69.90;24.20;101099.00;;;;4984571;27;88262;-64
2023/08/10 08:55:49;;;;;;;0.60;0.45;;;24.10;70.30;24.40;101096.00;;;;4983354;27;88293;-66
2023/08/10 08:58:16;;;;;;;2.05;0.30;;;24.20;70.50;24.70;101096.00;;;;4985438;27;117788;-65
2023/08/10 09:00:52;;;;;;;1.05;0.85;;;24.60;69.50;24.80;101105.00;;;;4984686;27;87946;-63
2023/08/10 09:03:21;;;;;;;1.13;0.75;;;24.60;68.30;25.00;101094.00;;;;4987272;27;88095;-64
2023/08/10 09:05:47;;;;;;;0.30;0.30;;;24.80;67.80;25.20;101107.00;;;;4983730;27;88406;-65
2023/08/10 09:08:18;;;;;;;1.40;0.75;;;25.00;67.40;25.40;101101.00;;;;4983553;27;88547;-65
2023/08/10 09:10:46;;;;;;;1.38;1.05;;;25.10;66.10;25.40;101113.00;;;;4984966;27;102919;-64
2023/08/10 09:13:21;;;;;;;0.60;0.60;;;25.20;64.30;25.30;101102.00;;;;4989593;27;88009;-65
2023/08/10 09:15:47;;;;;;;1.63;0.70;;;25.20;62.30;25.20;101096.00;;;;4987636;27;88312;-63
2023/08/10 09:18:13;;;;;;;0.65;0.57;;;25.10;61.20;25.10;101096.00;;;;4986647;27;87915;-65
2023/08/10 09:20:39;;;;;;;5.88;0.60;;;25.00;61.60;25.00;101096.00;;;;4989070;27;109795;-64
2023/08/10 09:23:05;;;;;;;1.33;1.10;;;24.80;61.90;24.90;101107.00;;;;4982654;27;89495;-64
2023/08/10 09:25:37;;;;;;;0.68;0.40;;;24.80;61.50;25.00;101102.00;;;;4984820;28;88025;-65
2023/08/10 09:28:12;;;;;;;1.23;0.60;;;24.80;61.40;25.20;101096.00;;;;4984972;27;88859;-64
2023/08/10 09:30:38;;;;;;;1.27;0.50;;;24.90;62.30;25.50;101104.00;;;;4979753;27;87760;-65
2023/08/10 09:33:04;;;;;;;0.57;0.43;;;25.10;61.60;25.60;101096.00;;;;4979496;27;87724;-64
2023/08/10 09:35:31;;;;;;;0.30;0.30;;;25.30;60.30;25.80;101100.00;;;;4984753;27;89101;-65
2023/08/10 09:38:02;;;;;;;0.40;0.40;;;25.50;60.80;26.00;101107.00;;;;4982766;27;88024;-63
2023/08/10 09:40:28;;;;;;;1.88;0.80;;;25.60;61.00;25.90;101101.00;;;;4984142;27;87224;-63
2023/08/10 09:42:54;;;;;;;1.40;0.28;;;25.70;58.00;25.80;101102.00;;;;4982975;27;88471;-63
2023/08/10 09:45:19;;;;;;;0.98;0.63;;;25.60;57.90;25.60;101106.00;;;;4978650;27;116618;-64
2023/08/10 09:47:45;;;;;;;0.73;0.57;;;25.50;58.10;25.70;101105.00;;;;4979810;27;117787;-64
2023/08/10 09:50:14;;;;;;;0.80;0.80;;;25.50;58.90;25.90;101107.00;;;;4982763;28;109443;-63
2023/08/10 09:52:41;;;;;;;2.65;0.80;;;25.60;59.00;26.00;101112.00;;;;4983054;28;88011;-63
2023/08/10 09:55:09;;;;;;;0.98;0.52;;;25.70;58.90;26.20;101101.00;;;;4983087;27;111140;-63
2023/08/10 09:57:44;;;;;;;0.20;0.20;;;25.80;58.00;26.30;101105.00;;;;4982844;28;88012;-64
2023/08/10 10:00:22;;;;;;;0.40;0.30;;;25.90;58.10;26.50;101103.00;;;;4983646;27;88062;-63
2023/08/10 10:02:48;;;;;;;0.75;0.63;;;26.10;58.20;26.70;101106.00;;;;4984248;27;88024;-64
2023/08/10 10:05:17;;;;;;;0.38;0.38;;;26.30;57.30;26.90;101100.00;;;;4982011;28;87801;-64
2023/08/10 10:07:44;;;;;;;1.20;0.43;;;26.50;57.00;27.00;101094.00;;;;4984233;27;87801;-65
2023/08/10 10:10:12;;;;;;;0.80;0.55;;;26.50;55.90;27.20;101093.00;;;;4982457;27;88204;-66
2023/08/10 10:12:38;;;;;;;0.80;0.57;;;26.80;56.30;27.50;101096.00;;;;4989556;27;89128;-65
2023/08/10 10:15:07;;;;;;;1.10;0.57;;;27.00;56.60;27.70;101107.00;;;;4983789;27;105803;-66
2023/08/10 10:17:33;;;;;;;1.40;0.45;;;27.20;55.60;27.80;101105.00;;;;4986210;27;111908;-65
2023/08/10 10:19:59;;;;;;;0.57;0.47;;;27.30;54.40;27.90;101104.00;;;;4984216;27;109703;-66
2023/08/10 10:22:25;;;;;;;0.65;0.35;;;27.50;54.30;28.00;101102.00;;;;4990468;27;107469;-66
2023/08/10 10:24:51;;;;;;;0.52;0.52;;;27.50;54.30;28.30;101103.00;;;;4987696;27;88767;-67
2023/08/10 10:27:17;;;;;;;0.47;0.35;;;27.70;54.50;28.30;101093.00;;;;4986337;27;103695;-65
2023/08/10 10:29:57;;;;;;;2.65;0.63;;;27.80;52.30;28.20;101100.00;;;;4987169;27;110872;-66
2023/08/10 10:32:24;;;;;;;0.50;0.47;;;27.80;52.20;28.10;101095.00;;;;4989562;27;88013;-64
2023/08/10 10:34:52;;;;;;;5.60;0.73;;;27.70;52.50;28.00;101102.00;;;;4989356;27;116530;-66
2023/08/10 10:37:28;;;;;;;1.27;0.80;;;27.60;52.30;27.90;101099.00;;;;4989237;27;89094;-65
2023/08/10 10:40:18;;;;;;;0.95;0.32;;;27.60;52.70;27.80;101100.00;;;;4983183;28;97242;-66
2023/08/10 10:43:11;;;;;;;0.30;0.30;;;27.50;53.00;27.90;101096.00;;;;4984893;27;88199;-64
2023/08/10 10:45:40;;;;;;;0.22;0.22;;;27.50;53.10;28.20;101092.00;;;;4987496;27;87996;-66